PWSweather.com
Personal Weather Stations
Station Observations
SPARKSRC
St. Petersburg, FL 33716

St. Petersburg, FL 33716

Lat: 27.876101, Lon: -82.657194

Elevation: 13

Station Type: Zephyr PWS-1000TD

Latest ConditionsUpdated 8:20:01 PM EDT Sunday, Jun 24, 2018
Currently Today's Max Today's Min Today's Average
Temperature 78.8°F26.0°C 110.3°F43.5°C 77.7°F25.4°C 89.7°F32.1°C
Dew Point 71.4°F21.9°C 83.0°F28.3°C 68.8°F20.4°C 74.7°F23.7°C
Winds 6.9 mph ESE11.1 kmh ESE 19.7 mph -31.7 kmh - - 4.6 mph 7.4 kmh
Wind Gusts 15.2 mph24.5 kmh 28.2 mph45.4 kmh - -
Humidity 78% 79% 41% 63%
Pressure 29.90 in1012.5 mb 29.93 in1013.5 mb 29.82 in1009.8 mb -
Precipitation - 0.46 in11.7 mm - -
Hour Temp Dew Point Humidity Winds Wind Gusts Pressure Precip Precip Rate Daily Precip Total
08:20 PM 78.8°F26.0°C 71.4°F21.9°C 78% 6.9 mph ESE11.1 kmh ESE 15.2 mph24.5 kmh 29.90 in1012.5 mb 0.35 in8.9 mm 0.00 in0.0 mm 0.46 in11.7 mm
08:15 PM 78.8°F26.0°C 71.4°F21.9°C 78% 8.3 mph E13.4 kmh E 15.2 mph24.5 kmh 29.89 in1012.2 mb 0.41 in10.4 mm 0.00 in0.0 mm 0.46 in11.7 mm
08:10 PM 78.8°F26.0°C 71.8°F22.1°C 79% 9.8 mph E15.8 kmh E 12.1 mph19.5 kmh 29.90 in1012.5 mb 0.43 in10.9 mm 0.00 in0.0 mm 0.45 in11.4 mm
08:05 PM 79.0°F26.1°C 72.0°F22.2°C 79% 7.6 mph E12.2 kmh E 11.4 mph18.3 kmh 29.90 in1012.5 mb 0.44 in11.2 mm 0.00 in0.0 mm 0.45 in11.4 mm
08:00 PM 79.0°F26.1°C 72.0°F22.2°C 79% 5.4 mph ENE8.7 kmh ENE 13.0 mph20.9 kmh 29.91 in1012.9 mb 0.44 in11.2 mm 0.03 in0.8 mm 0.45 in11.4 mm
07:55 PM 79.2°F26.2°C 72.1°F22.3°C 79% 8.3 mph ENE13.4 kmh ENE 17.4 mph28.0 kmh 29.91 in1012.9 mb 0.41 in10.4 mm 0.24 in6.1 mm 0.43 in10.9 mm
07:50 PM 79.3°F26.3°C 71.9°F22.2°C 78% 5.4 mph ENE8.7 kmh ENE 19.7 mph31.7 kmh 29.91 in1012.9 mb 0.39 in9.9 mm 0.72 in18.3 mm 0.40 in10.2 mm
07:45 PM 79.3°F26.3°C 71.9°F22.2°C 78% 13.6 mph NE21.9 kmh NE 19.7 mph31.7 kmh 29.92 in1013.2 mb 0.33 in8.4 mm 1.32 in33.5 mm 0.34 in8.6 mm
07:40 PM 79.7°F26.5°C 72.3°F22.4°C 78% 11.4 mph NE18.3 kmh NE 24.4 mph39.3 kmh 29.93 in1013.5 mb 0.22 in5.6 mm 0.48 in12.2 mm 0.24 in6.1 mm
07:35 PM 79.7°F26.5°C 71.9°F22.2°C 77% 11.4 mph NE18.3 kmh NE 24.4 mph39.3 kmh 29.92 in1013.2 mb 0.18 in4.6 mm 0.36 in9.1 mm 0.19 in4.8 mm
07:30 PM 80.1°F26.7°C 72.3°F22.4°C 77% 16.8 mph ENE27.0 kmh ENE 26.6 mph42.8 kmh 29.93 in1013.5 mb 0.15 in3.8 mm 0.36 in9.1 mm 0.17 in4.3 mm
07:25 PM 80.1°F26.7°C 71.9°F22.2°C 76% 15.2 mph ENE24.5 kmh ENE 26.6 mph42.8 kmh 29.92 in1013.2 mb 0.12 in3.0 mm 0.60 in15.2 mm 0.13 in3.3 mm
07:20 PM 80.6°F27.0°C 72.0°F22.2°C 75% 18.3 mph ENE29.5 kmh ENE 25.1 mph40.4 kmh 29.92 in1013.2 mb 0.07 in1.8 mm 0.36 in9.1 mm 0.08 in2.0 mm
07:15 PM 80.8°F27.1°C 71.8°F22.1°C 74% 14.5 mph E23.3 kmh E 22.1 mph35.6 kmh 29.92 in1013.2 mb 0.04 in1.0 mm 0.24 in6.1 mm 0.05 in1.3 mm
07:10 PM 81.0°F27.2°C 71.5°F21.9°C 73% 7.6 mph E12.2 kmh E 9.8 mph15.8 kmh 29.91 in1012.9 mb 0.02 in0.5 mm 0.12 in3.0 mm 0.02 in0.5 mm
07:05 PM 81.1°F27.3°C 71.7°F22.1°C 73% 6.0 mph E9.7 kmh E 9.2 mph14.8 kmh 29.89 in1012.2 mb 0.01 in0.3 mm 0.00 in0.0 mm 0.01 in0.3 mm
07:00 PM 81.3°F27.4°C 71.9°F22.2°C 73% 6.0 mph ENE9.7 kmh ENE 8.3 mph13.4 kmh 29.88 in1011.9 mb 0.01 in0.3 mm 0.00 in0.0 mm 0.01 in0.3 mm
06:55 PM 81.3°F27.4°C 71.9°F22.2°C 73% 3.1 mph ENE5.0 kmh ENE 4.5 mph7.2 kmh 29.88 in1011.9 mb 0.01 in0.3 mm 0.00 in0.0 mm 0.01 in0.3 mm
06:50 PM 81.3°F27.4°C 71.9°F22.2°C 73% 1.6 mph E2.6 kmh E 4.5 mph7.2 kmh 29.88 in1011.9 mb 0.01 in0.3 mm 0.00 in0.0 mm 0.01 in0.3 mm
06:45 PM 81.7°F27.6°C 72.2°F22.3°C 73% 3.1 mph E5.0 kmh E 5.4 mph8.7 kmh 29.88 in1011.9 mb 0.01 in0.3 mm 0.00 in0.0 mm 0.01 in0.3 mm
06:40 PM 81.7°F27.6°C 71.8°F22.1°C 72% 3.8 mph E6.1 kmh E 7.6 mph12.2 kmh 29.88 in1011.9 mb 0.01 in0.3 mm 0.00 in0.0 mm 0.01 in0.3 mm
06:35 PM 82.0°F27.8°C 72.2°F22.3°C 72% 3.8 mph E6.1 kmh E 13.0 mph20.9 kmh 29.88 in1011.9 mb 0.01 in0.3 mm 0.00 in0.0 mm 0.01 in0.3 mm
06:30 PM 82.2°F27.9°C 72.3°F22.4°C 72% 6.0 mph E9.7 kmh E 15.9 mph25.6 kmh 29.88 in1011.9 mb 0.01 in0.3 mm 0.00 in0.0 mm 0.01 in0.3 mm
06:25 PM 82.6°F28.1°C 72.7°F22.6°C 72% 8.3 mph ENE13.4 kmh ENE 15.9 mph25.6 kmh 29.87 in1011.5 mb 0.01 in0.3 mm 0.00 in0.0 mm 0.01 in0.3 mm
06:20 PM 83.3°F28.5°C 73.0°F22.8°C 71% 7.6 mph ENE12.2 kmh ENE 14.5 mph23.3 kmh 29.87 in1011.5 mb 0.01 in0.3 mm 0.00 in0.0 mm 0.01 in0.3 mm
06:15 PM 83.8°F28.8°C 73.5°F23.1°C 71% 7.6 mph NE12.2 kmh NE 15.2 mph24.5 kmh 29.87 in1011.5 mb 0.01 in0.3 mm 0.12 in3.0 mm 0.01 in0.3 mm
06:10 PM 84.2°F29.0°C 73.4°F23.0°C 70% 7.6 mph NE12.2 kmh NE 18.3 mph29.5 kmh 29.87 in1011.5 mb 0.00 in0.0 mm 0.00 in0.0 mm 0.00 in0.0 mm
06:05 PM 84.9°F29.4°C 73.7°F23.2°C 69% 9.2 mph NE14.8 kmh NE 19.7 mph31.7 kmh 29.87 in1011.5 mb 0.00 in0.0 mm 0.00 in0.0 mm 0.00 in0.0 mm
06:00 PM 85.6°F29.8°C 74.4°F23.6°C 69% 13.0 mph ENE20.9 kmh ENE 25.1 mph40.4 kmh 29.87 in1011.5 mb 0.00 in0.0 mm 0.00 in0.0 mm 0.00 in0.0 mm
05:55 PM 86.4°F30.2°C 74.6°F23.7°C 68% 13.6 mph NE21.9 kmh NE 25.1 mph40.4 kmh 29.87 in1011.5 mb 0.00 in0.0 mm 0.00 in0.0 mm 0.00 in0.0 mm
05:50 PM 87.3°F30.7°C 75.0°F23.9°C 67% 19.7 mph NE31.7 kmh NE 28.2 mph45.4 kmh 29.87 in1011.5 mb 0.00 in0.0 mm 0.00 in0.0 mm 0.00 in0.0 mm
05:45 PM 88.2°F31.2°C 75.4°F24.1°C 66% 13.6 mph NE21.9 kmh NE 28.2 mph45.4 kmh 29.87 in1011.5 mb 0.00 in0.0 mm 0.00 in0.0 mm 0.00 in0.0 mm
05:40 PM 89.4°F31.9°C 75.7°F24.3°C 64% 16.8 mph NE27.0 kmh NE 26.6 mph42.8 kmh 29.86 in1011.2 mb 0.00 in0.0 mm 0.00 in0.0 mm 0.00 in0.0 mm
05:35 PM 90.3°F32.4°C 75.6°F24.2°C 62% 15.2 mph N24.5 kmh N 25.1 mph40.4 kmh 29.86 in1011.2 mb 0.00 in0.0 mm 0.00 in0.0 mm 0.00 in0.0 mm
05:30 PM 90.9°F32.7°C 76.1°F24.5°C 62% 7.6 mph NW12.2 kmh NW 9.8 mph15.8 kmh 29.85 in1010.8 mb 0.00 in0.0 mm 0.00 in0.0 mm 0.00 in0.0 mm
05:25 PM 91.0°F32.8°C 75.8°F24.3°C 61% 3.8 mph NW6.1 kmh NW 10.7 mph17.2 kmh 29.85 in1010.8 mb 0.00 in0.0 mm 0.00 in0.0 mm 0.00 in0.0 mm
05:20 PM 91.4°F33.0°C 76.1°F24.5°C 61% 7.6 mph WNW12.2 kmh WNW 11.4 mph18.3 kmh 29.84 in1010.5 mb 0.00 in0.0 mm 0.00 in0.0 mm 0.00 in0.0 mm
05:15 PM 91.8°F33.2°C 76.0°F24.4°C 60% 4.5 mph NW7.2 kmh NW 12.1 mph19.5 kmh 29.83 in1010.2 mb 0.00 in0.0 mm 0.00 in0.0 mm 0.00 in0.0 mm
05:10 PM 92.1°F33.4°C 76.3°F24.6°C 60% 7.6 mph WNW12.2 kmh WNW 12.1 mph19.5 kmh 29.82 in1009.8 mb 0.00 in0.0 mm 0.00 in0.0 mm 0.00 in0.0 mm
05:05 PM 92.5°F33.6°C 76.7°F24.8°C 60% 4.5 mph WNW7.2 kmh WNW 12.1 mph19.5 kmh 29.83 in1010.2 mb 0.00 in0.0 mm 0.00 in0.0 mm 0.00 in0.0 mm
05:00 PM 92.8°F33.8°C 76.5°F24.7°C 59% 6.9 mph NW11.1 kmh NW 12.1 mph19.5 kmh 29.85 in1010.8 mb 0.00 in0.0 mm 0.00 in0.0 mm 0.00 in0.0 mm
04:55 PM 93.2°F34.0°C 77.3°F25.2°C 60% 3.8 mph W6.1 kmh W 13.6 mph21.9 kmh 29.85 in1010.8 mb 0.00 in0.0 mm 0.00 in0.0 mm 0.00 in0.0 mm
04:50 PM 92.5°F33.6°C 77.6°F25.3°C 62% 4.5 mph W7.2 kmh W 13.6 mph21.9 kmh 29.84 in1010.5 mb 0.00 in0.0 mm 0.00 in0.0 mm 0.00 in0.0 mm
04:45 PM 91.8°F33.2°C 77.0°F25.0°C 62% 8.3 mph WNW13.4 kmh WNW 13.6 mph21.9 kmh 29.84 in1010.5 mb 0.00 in0.0 mm 0.00 in0.0 mm 0.00 in0.0 mm
04:40 PM 91.2°F32.9°C 76.5°F24.7°C 62% 8.3 mph NW13.4 kmh NW 12.1 mph19.5 kmh 29.84 in1010.5 mb 0.00 in0.0 mm 0.00 in0.0 mm 0.00 in0.0 mm
04:35 PM 91.4°F33.0°C 76.1°F24.5°C 61% 7.6 mph WNW12.2 kmh WNW 14.5 mph23.3 kmh 29.84 in1010.5 mb 0.00 in0.0 mm 0.00 in0.0 mm 0.00 in0.0 mm
04:30 PM 91.6°F33.1°C 75.8°F24.3°C 60% 9.2 mph WNW14.8 kmh WNW 14.5 mph23.3 kmh 29.83 in1010.2 mb 0.00 in0.0 mm 0.00 in0.0 mm 0.00 in0.0 mm
04:25 PM 92.1°F33.4°C 75.3°F24.1°C 58% 5.4 mph NW8.7 kmh NW 14.5 mph23.3 kmh 29.84 in1010.5 mb 0.00 in0.0 mm 0.00 in0.0 mm 0.00 in0.0 mm
04:20 PM 92.8°F33.8°C 75.4°F24.1°C 57% 7.6 mph WNW12.2 kmh WNW 11.4 mph18.3 kmh 29.85 in1010.8 mb 0.00 in0.0 mm 0.00 in0.0 mm 0.00 in0.0 mm
04:15 PM 92.8°F33.8°C 75.4°F24.1°C 57% 4.5 mph W7.2 kmh W 14.5 mph23.3 kmh 29.86 in1011.2 mb 0.00 in0.0 mm 0.00 in0.0 mm 0.00 in0.0 mm
04:10 PM 92.7°F33.7°C 75.8°F24.3°C 58% 6.0 mph WNW9.7 kmh WNW 14.5 mph23.3 kmh 29.85 in1010.8 mb 0.00 in0.0 mm 0.00 in0.0 mm 0.00 in0.0 mm
04:05 PM 92.3°F33.5°C 75.5°F24.2°C 58% 6.9 mph NW11.1 kmh NW 13.6 mph21.9 kmh 29.85 in1010.8 mb 0.00 in0.0 mm 0.00 in0.0 mm 0.00 in0.0 mm
04:00 PM 91.9°F33.3°C 75.1°F23.9°C 58% 6.0 mph NW9.7 kmh NW 11.4 mph18.3 kmh 29.84 in1010.5 mb 0.00 in0.0 mm 0.00 in0.0 mm 0.00 in0.0 mm
03:55 PM 91.9°F33.3°C 75.1°F23.9°C 58% 4.5 mph NW7.2 kmh NW 10.7 mph17.2 kmh 29.85 in1010.8 mb 0.00 in0.0 mm 0.00 in0.0 mm 0.00 in0.0 mm
03:50 PM 92.5°F33.6°C 75.1°F23.9°C 57% 3.1 mph WNW5.0 kmh WNW 10.7 mph17.2 kmh 29.84 in1010.5 mb 0.00 in0.0 mm 0.00 in0.0 mm 0.00 in0.0 mm
03:45 PM 93.2°F34.0°C 75.3°F24.1°C 56% 3.1 mph NW5.0 kmh NW 12.1 mph19.5 kmh 29.85 in1010.8 mb 0.00 in0.0 mm 0.00 in0.0 mm 0.00 in0.0 mm
03:40 PM 94.1°F34.5°C 75.0°F23.9°C 54% 4.5 mph NW7.2 kmh NW 12.1 mph19.5 kmh 29.85 in1010.8 mb 0.00 in0.0 mm 0.00 in0.0 mm 0.00 in0.0 mm
03:35 PM 95.4°F35.2°C 75.0°F23.9°C 52% 5.4 mph NW8.7 kmh NW 13.6 mph21.9 kmh 29.85 in1010.8 mb 0.00 in0.0 mm 0.00 in0.0 mm 0.00 in0.0 mm
03:30 PM 96.6°F35.9°C 75.6°F24.2°C 51% 6.9 mph NW11.1 kmh NW 13.6 mph21.9 kmh 29.86 in1011.2 mb 0.00 in0.0 mm 0.00 in0.0 mm 0.00 in0.0 mm
03:25 PM 97.7°F36.5°C 76.0°F24.4°C 50% 5.4 mph NW8.7 kmh NW 13.0 mph20.9 kmh 29.86 in1011.2 mb 0.00 in0.0 mm 0.00 in0.0 mm 0.00 in0.0 mm
03:20 PM 98.8°F37.1°C 76.4°F24.7°C 49% 6.0 mph NW9.7 kmh NW 15.9 mph25.6 kmh 29.85 in1010.8 mb 0.00 in0.0 mm 0.00 in0.0 mm 0.00 in0.0 mm
03:15 PM 100.0°F37.8°C 76.3°F24.6°C 47% 7.6 mph NW12.2 kmh NW 15.9 mph25.6 kmh 29.84 in1010.5 mb 0.00 in0.0 mm 0.00 in0.0 mm 0.00 in0.0 mm
03:10 PM 101.5°F38.6°C 76.9°F24.9°C 46% 6.9 mph NW11.1 kmh NW 16.8 mph27.0 kmh 29.85 in1010.8 mb 0.00 in0.0 mm 0.00 in0.0 mm 0.00 in0.0 mm
03:05 PM 103.6°F39.8°C 78.2°F25.7°C 45% 5.4 mph NW8.7 kmh NW 19.7 mph31.7 kmh 29.84 in1010.5 mb 0.00 in0.0 mm 0.00 in0.0 mm 0.00 in0.0 mm
03:00 PM 106.9°F41.6°C 78.3°F25.7°C 41% 9.2 mph NNW14.8 kmh NNW 19.7 mph31.7 kmh 29.84 in1010.5 mb 0.00 in0.0 mm 0.00 in0.0 mm 0.00 in0.0 mm
02:55 PM 109.6°F43.1°C 80.7°F27.1°C 41% 10.7 mph NW17.2 kmh NW 17.4 mph28.0 kmh 29.85 in1010.8 mb 0.00 in0.0 mm 0.00 in0.0 mm 0.00 in0.0 mm
02:50 PM 109.8°F43.2°C 80.9°F27.2°C 41% 10.7 mph NW17.2 kmh NW 15.9 mph25.6 kmh 29.85 in1010.8 mb 0.00 in0.0 mm 0.00 in0.0 mm 0.00 in0.0 mm
02:45 PM 109.4°F43.0°C 81.3°F27.4°C 42% 8.3 mph NW13.4 kmh NW 16.8 mph27.0 kmh 29.85 in1010.8 mb 0.00 in0.0 mm 0.00 in0.0 mm 0.00 in0.0 mm
02:40 PM 108.9°F42.7°C 80.8°F27.1°C 42% 9.2 mph NW14.8 kmh NW 16.8 mph27.0 kmh 29.85 in1010.8 mb 0.00 in0.0 mm 0.00 in0.0 mm 0.00 in0.0 mm
02:35 PM 108.5°F42.5°C 80.5°F26.9°C 42% 13.0 mph NW20.9 kmh NW 16.8 mph27.0 kmh 29.86 in1011.2 mb 0.00 in0.0 mm 0.00 in0.0 mm 0.00 in0.0 mm
02:30 PM 108.1°F42.3°C 80.2°F26.8°C 42% 7.6 mph NNW12.2 kmh NNW 16.8 mph27.0 kmh 29.86 in1011.2 mb 0.00 in0.0 mm 0.00 in0.0 mm 0.00 in0.0 mm
02:25 PM 108.0°F42.2°C 80.7°F27.1°C 43% 7.6 mph NNW12.2 kmh NNW 16.8 mph27.0 kmh 29.86 in1011.2 mb 0.00 in0.0 mm 0.00 in0.0 mm 0.00 in0.0 mm
02:20 PM 107.8°F42.1°C 80.6°F27.0°C 43% 11.4 mph NW18.3 kmh NW 16.8 mph27.0 kmh 29.86 in1011.2 mb 0.00 in0.0 mm 0.00 in0.0 mm 0.00 in0.0 mm
02:15 PM 107.8°F42.1°C 79.9°F26.6°C 42% 7.6 mph NW12.2 kmh NW 15.2 mph24.5 kmh 29.87 in1011.5 mb 0.00 in0.0 mm 0.00 in0.0 mm 0.00 in0.0 mm
02:10 PM 109.6°F43.1°C 81.5°F27.5°C 42% 11.4 mph NW18.3 kmh NW 15.9 mph25.6 kmh 29.86 in1011.2 mb 0.00 in0.0 mm 0.00 in0.0 mm 0.00 in0.0 mm
02:05 PM 109.0°F42.8°C 81.0°F27.2°C 42% 6.0 mph NW9.7 kmh NW 18.3 mph29.5 kmh 29.86 in1011.2 mb 0.00 in0.0 mm 0.00 in0.0 mm 0.00 in0.0 mm
02:00 PM 109.9°F43.3°C 81.1°F27.3°C 41% 8.3 mph NW13.4 kmh NW 18.3 mph29.5 kmh 29.86 in1011.2 mb 0.00 in0.0 mm 0.00 in0.0 mm 0.00 in0.0 mm
01:55 PM 110.3°F43.5°C 81.4°F27.4°C 41% 9.8 mph NW15.8 kmh NW 16.8 mph27.0 kmh 29.87 in1011.5 mb 0.00 in0.0 mm 0.00 in0.0 mm 0.00 in0.0 mm
01:50 PM 109.4°F43.0°C 80.6°F27.0°C 41% 5.4 mph NW8.7 kmh NW 13.6 mph21.9 kmh 29.87 in1011.5 mb 0.00 in0.0 mm 0.00 in0.0 mm 0.00 in0.0 mm
01:45 PM 109.4°F43.0°C 81.3°F27.4°C 42% 7.6 mph NNW12.2 kmh NNW 13.6 mph21.9 kmh 29.87 in1011.5 mb 0.00 in0.0 mm 0.00 in0.0 mm 0.00 in0.0 mm
01:40 PM 109.0°F42.8°C 81.0°F27.2°C 42% 4.5 mph N7.2 kmh N 13.6 mph21.9 kmh 29.88 in1011.9 mb 0.00 in0.0 mm 0.00 in0.0 mm 0.00 in0.0 mm
01:35 PM 108.9°F42.7°C 80.8°F27.1°C 42% 6.9 mph N11.1 kmh N 15.2 mph24.5 kmh 29.88 in1011.9 mb 0.00 in0.0 mm 0.00 in0.0 mm 0.00 in0.0 mm
01:30 PM 108.5°F42.5°C 80.5°F26.9°C 42% 5.4 mph N8.7 kmh N 15.2 mph24.5 kmh 29.88 in1011.9 mb 0.00 in0.0 mm 0.00 in0.0 mm 0.00 in0.0 mm
01:25 PM 108.7°F42.6°C 80.7°F27.1°C 42% 12.1 mph N19.5 kmh N 14.5 mph23.3 kmh 29.88 in1011.9 mb 0.00 in0.0 mm 0.00 in0.0 mm 0.00 in0.0 mm
01:20 PM 108.1°F42.3°C 80.9°F27.2°C 43% 3.8 mph N6.1 kmh N 14.5 mph23.3 kmh 29.88 in1011.9 mb 0.00 in0.0 mm 0.00 in0.0 mm 0.00 in0.0 mm
01:15 PM 108.1°F42.3°C 80.9°F27.2°C 43% 11.4 mph N18.3 kmh N 14.5 mph23.3 kmh 29.88 in1011.9 mb 0.00 in0.0 mm 0.00 in0.0 mm 0.00 in0.0 mm
01:10 PM 108.3°F42.4°C 81.1°F27.3°C 43% 9.8 mph N15.8 kmh N 14.5 mph23.3 kmh 29.88 in1011.9 mb 0.00 in0.0 mm 0.00 in0.0 mm 0.00 in0.0 mm
01:05 PM 108.1°F42.3°C 80.9°F27.2°C 43% 5.4 mph N8.7 kmh N 13.6 mph21.9 kmh 29.88 in1011.9 mb 0.00 in0.0 mm 0.00 in0.0 mm 0.00 in0.0 mm
01:00 PM 108.1°F42.3°C 80.9°F27.2°C 43% 3.8 mph NNW6.1 kmh NNW 13.6 mph21.9 kmh 29.88 in1011.9 mb 0.00 in0.0 mm 0.00 in0.0 mm 0.00 in0.0 mm
12:55 PM 108.0°F42.2°C 80.7°F27.1°C 43% 6.9 mph NW11.1 kmh NW 13.0 mph20.9 kmh 29.88 in1011.9 mb 0.00 in0.0 mm 0.00 in0.0 mm 0.00 in0.0 mm
12:50 PM 108.0°F42.2°C 80.7°F27.1°C 43% 7.6 mph NW12.2 kmh NW 13.0 mph20.9 kmh 29.88 in1011.9 mb 0.00 in0.0 mm 0.00 in0.0 mm 0.00 in0.0 mm
12:45 PM 107.8°F42.1°C 80.6°F27.0°C 43% 6.0 mph NW9.7 kmh NW 13.0 mph20.9 kmh 29.89 in1012.2 mb 0.00 in0.0 mm 0.00 in0.0 mm 0.00 in0.0 mm
12:40 PM 108.0°F42.2°C 80.0°F26.7°C 42% 6.9 mph NW11.1 kmh NW 13.0 mph20.9 kmh 29.89 in1012.2 mb 0.00 in0.0 mm 0.00 in0.0 mm 0.00 in0.0 mm
12:35 PM 109.2°F42.9°C 81.2°F27.3°C 42% 7.6 mph NW12.2 kmh NW 13.0 mph20.9 kmh 29.89 in1012.2 mb 0.00 in0.0 mm 0.00 in0.0 mm 0.00 in0.0 mm
12:30 PM 109.2°F42.9°C 81.2°F27.3°C 42% 7.6 mph NW12.2 kmh NW 13.0 mph20.9 kmh 29.89 in1012.2 mb 0.00 in0.0 mm 0.00 in0.0 mm 0.00 in0.0 mm
12:25 PM 109.0°F42.8°C 81.0°F27.2°C 42% 8.3 mph NW13.4 kmh NW 13.0 mph20.9 kmh 29.90 in1012.5 mb 0.00 in0.0 mm 0.00 in0.0 mm 0.00 in0.0 mm
12:20 PM 108.1°F42.3°C 80.9°F27.2°C 43% 5.4 mph NW8.7 kmh NW 12.1 mph19.5 kmh 29.90 in1012.5 mb 0.00 in0.0 mm 0.00 in0.0 mm 0.00 in0.0 mm
12:15 PM 107.8°F42.1°C 80.6°F27.0°C 43% 3.1 mph N5.0 kmh N 12.1 mph19.5 kmh 29.90 in1012.5 mb 0.00 in0.0 mm 0.00 in0.0 mm 0.00 in0.0 mm
12:10 PM 107.6°F42.0°C 80.4°F26.9°C 43% 7.6 mph N12.2 kmh N 12.1 mph19.5 kmh 29.90 in1012.5 mb 0.00 in0.0 mm 0.00 in0.0 mm 0.00 in0.0 mm
12:05 PM 107.6°F42.0°C 81.1°F27.3°C 44% 8.3 mph NNW13.4 kmh NNW 12.1 mph19.5 kmh 29.90 in1012.5 mb 0.00 in0.0 mm 0.00 in0.0 mm 0.00 in0.0 mm
12:00 PM 107.2°F41.8°C 80.8°F27.1°C 44% 3.8 mph NW6.1 kmh NW 11.4 mph18.3 kmh 29.91 in1012.9 mb 0.00 in0.0 mm 0.00 in0.0 mm 0.00 in0.0 mm
11:55 AM 107.1°F41.7°C 80.6°F27.0°C 44% 3.8 mph NW6.1 kmh NW 11.4 mph18.3 kmh 29.91 in1012.9 mb 0.00 in0.0 mm 0.00 in0.0 mm 0.00 in0.0 mm
11:50 AM 106.7°F41.5°C 81.0°F27.2°C 45% 6.0 mph NW9.7 kmh NW 13.6 mph21.9 kmh 29.91 in1012.9 mb 0.00 in0.0 mm 0.00 in0.0 mm 0.00 in0.0 mm
11:45 AM 106.3°F41.3°C 80.7°F27.1°C 45% 8.3 mph NW13.4 kmh NW 13.6 mph21.9 kmh 29.91 in1012.9 mb 0.00 in0.0 mm 0.00 in0.0 mm 0.00 in0.0 mm
11:40 AM 105.4°F40.8°C 80.5°F26.9°C 46% 4.5 mph NW7.2 kmh NW 12.1 mph19.5 kmh 29.91 in1012.9 mb 0.00 in0.0 mm 0.00 in0.0 mm 0.00 in0.0 mm
11:35 AM 104.9°F40.5°C 80.7°F27.1°C 47% 6.0 mph NW9.7 kmh NW 13.6 mph21.9 kmh 29.90 in1012.5 mb 0.00 in0.0 mm 0.00 in0.0 mm 0.00 in0.0 mm
11:30 AM 104.5°F40.3°C 80.4°F26.9°C 47% 6.9 mph NNW11.1 kmh NNW 13.6 mph21.9 kmh 29.90 in1012.5 mb 0.00 in0.0 mm 0.00 in0.0 mm 0.00 in0.0 mm
11:25 AM 104.0°F40.0°C 79.9°F26.6°C 47% 5.4 mph N8.7 kmh N 13.6 mph21.9 kmh 29.91 in1012.9 mb 0.00 in0.0 mm 0.00 in0.0 mm 0.00 in0.0 mm
11:20 AM 103.5°F39.7°C 79.4°F26.3°C 47% 4.5 mph N7.2 kmh N 13.0 mph20.9 kmh 29.91 in1012.9 mb 0.00 in0.0 mm 0.00 in0.0 mm 0.00 in0.0 mm
11:15 AM 103.6°F39.8°C 80.2°F26.8°C 48% 8.3 mph N13.4 kmh N 13.0 mph20.9 kmh 29.91 in1012.9 mb 0.00 in0.0 mm 0.00 in0.0 mm 0.00 in0.0 mm
11:10 AM 103.6°F39.8°C 80.2°F26.8°C 48% 8.3 mph N13.4 kmh N 13.0 mph20.9 kmh 29.91 in1012.9 mb 0.00 in0.0 mm 0.00 in0.0 mm 0.00 in0.0 mm
11:05 AM 103.6°F39.8°C 81.5°F27.5°C 50% 7.6 mph N12.2 kmh N 10.7 mph17.2 kmh 29.90 in1012.5 mb 0.00 in0.0 mm 0.00 in0.0 mm 0.00 in0.0 mm
11:00 AM 102.6°F39.2°C 80.5°F26.9°C 50% 4.5 mph N7.2 kmh N 10.7 mph17.2 kmh 29.91 in1012.9 mb 0.00 in0.0 mm 0.00 in0.0 mm 0.00 in0.0 mm
10:55 AM 102.2°F39.0°C 80.7°F27.1°C 51% 4.5 mph N7.2 kmh N 10.7 mph17.2 kmh 29.90 in1012.5 mb 0.00 in0.0 mm 0.00 in0.0 mm 0.00 in0.0 mm
10:50 AM 101.7°F38.7°C 80.8°F27.1°C 52% 3.8 mph N6.1 kmh N 8.3 mph13.4 kmh 29.90 in1012.5 mb 0.00 in0.0 mm 0.00 in0.0 mm 0.00 in0.0 mm
10:45 AM 100.6°F38.1°C 81.0°F27.2°C 54% 3.8 mph N6.1 kmh N 12.1 mph19.5 kmh 29.91 in1012.9 mb 0.00 in0.0 mm 0.00 in0.0 mm 0.00 in0.0 mm
10:40 AM 99.3°F37.4°C 80.4°F26.9°C 55% 8.3 mph N13.4 kmh N 12.1 mph19.5 kmh 29.90 in1012.5 mb 0.00 in0.0 mm 0.00 in0.0 mm 0.00 in0.0 mm
10:35 AM 98.2°F36.8°C 80.5°F26.9°C 57% 7.6 mph N12.2 kmh N 10.7 mph17.2 kmh 29.90 in1012.5 mb 0.00 in0.0 mm 0.00 in0.0 mm 0.00 in0.0 mm
10:30 AM 97.7°F36.5°C 80.0°F26.7°C 57% 4.5 mph N7.2 kmh N 9.8 mph15.8 kmh 29.90 in1012.5 mb 0.00 in0.0 mm 0.00 in0.0 mm 0.00 in0.0 mm
10:25 AM 97.9°F36.6°C 80.2°F26.8°C 57% 6.9 mph NNW11.1 kmh NNW 8.3 mph13.4 kmh 29.91 in1012.9 mb 0.00 in0.0 mm 0.00 in0.0 mm 0.00 in0.0 mm
10:20 AM 97.0°F36.1°C 80.4°F26.9°C 59% 4.5 mph NNW7.2 kmh NNW 9.8 mph15.8 kmh 29.90 in1012.5 mb 0.00 in0.0 mm 0.00 in0.0 mm 0.00 in0.0 mm
10:15 AM 97.9°F36.6°C 80.2°F26.8°C 57% 6.0 mph N9.7 kmh N 9.8 mph15.8 kmh 29.90 in1012.5 mb 0.00 in0.0 mm 0.00 in0.0 mm 0.00 in0.0 mm
10:10 AM 99.7°F37.6°C 81.3°F27.4°C 56% 5.4 mph NNE8.7 kmh NNE 8.3 mph13.4 kmh 29.90 in1012.5 mb 0.00 in0.0 mm 0.00 in0.0 mm 0.00 in0.0 mm
10:05 AM 101.1°F38.4°C 82.1°F27.8°C 55% 3.1 mph NNE5.0 kmh NNE 9.8 mph15.8 kmh 29.89 in1012.2 mb 0.00 in0.0 mm 0.00 in0.0 mm 0.00 in0.0 mm
10:00 AM 101.3°F38.5°C 82.2°F27.9°C 55% 6.0 mph NNE9.7 kmh NNE 9.8 mph15.8 kmh 29.89 in1012.2 mb 0.00 in0.0 mm 0.00 in0.0 mm 0.00 in0.0 mm
09:55 AM 100.9°F38.3°C 83.0°F28.3°C 57% 7.6 mph NNE12.2 kmh NNE 9.8 mph15.8 kmh 29.89 in1012.2 mb 0.00 in0.0 mm 0.00 in0.0 mm 0.00 in0.0 mm
09:50 AM 99.7°F37.6°C 81.8°F27.7°C 57% 1.6 mph N2.6 kmh N 7.6 mph12.2 kmh 29.89 in1012.2 mb 0.00 in0.0 mm 0.00 in0.0 mm 0.00 in0.0 mm
09:45 AM 99.0°F37.2°C 81.7°F27.6°C 58% 5.4 mph NNE8.7 kmh NNE 9.2 mph14.8 kmh 29.89 in1012.2 mb 0.00 in0.0 mm 0.00 in0.0 mm 0.00 in0.0 mm
09:40 AM 98.6°F37.0°C 81.4°F27.4°C 58% 3.8 mph NNE6.1 kmh NNE 9.8 mph15.8 kmh 29.90 in1012.5 mb 0.00 in0.0 mm 0.00 in0.0 mm 0.00 in0.0 mm
09:35 AM 98.6°F37.0°C 81.4°F27.4°C 58% 4.5 mph NE7.2 kmh NE 9.8 mph15.8 kmh 29.90 in1012.5 mb 0.00 in0.0 mm 0.00 in0.0 mm 0.00 in0.0 mm
09:30 AM 98.6°F37.0°C 80.8°F27.1°C 57% 3.8 mph NNE6.1 kmh NNE 7.6 mph12.2 kmh 29.89 in1012.2 mb 0.00 in0.0 mm 0.00 in0.0 mm 0.00 in0.0 mm
09:25 AM 98.6°F37.0°C 80.8°F27.1°C 57% 2.2 mph NNW3.5 kmh NNW 7.6 mph12.2 kmh 29.90 in1012.5 mb 0.00 in0.0 mm 0.00 in0.0 mm 0.00 in0.0 mm
09:20 AM 97.9°F36.6°C 81.2°F27.3°C 59% 3.8 mph NNW6.1 kmh NNW 9.2 mph14.8 kmh 29.90 in1012.5 mb 0.00 in0.0 mm 0.00 in0.0 mm 0.00 in0.0 mm
09:15 AM 96.8°F36.0°C 80.7°F27.1°C 60% 3.8 mph NNW6.1 kmh NNW 9.2 mph14.8 kmh 29.90 in1012.5 mb 0.00 in0.0 mm 0.00 in0.0 mm 0.00 in0.0 mm
09:10 AM 95.9°F35.5°C 80.4°F26.9°C 61% 3.1 mph NNW5.0 kmh NNW 9.8 mph15.8 kmh 29.90 in1012.5 mb 0.00 in0.0 mm 0.00 in0.0 mm 0.00 in0.0 mm
09:05 AM 94.8°F34.9°C 79.9°F26.6°C 62% 4.5 mph N7.2 kmh N 9.8 mph15.8 kmh 29.90 in1012.5 mb 0.00 in0.0 mm 0.00 in0.0 mm 0.00 in0.0 mm
09:00 AM 93.9°F34.4°C 79.0°F26.1°C 62% 5.4 mph N8.7 kmh N 7.6 mph12.2 kmh 29.91 in1012.9 mb 0.00 in0.0 mm 0.00 in0.0 mm 0.00 in0.0 mm
08:55 AM 93.0°F33.9°C 78.6°F25.9°C 63% 4.5 mph NNW7.2 kmh NNW 6.9 mph11.1 kmh 29.91 in1012.9 mb 0.00 in0.0 mm 0.00 in0.0 mm 0.00 in0.0 mm
08:50 AM 92.7°F33.7°C 78.3°F25.7°C 63% 3.1 mph NNW5.0 kmh NNW 8.3 mph13.4 kmh 29.91 in1012.9 mb 0.00 in0.0 mm 0.00 in0.0 mm 0.00 in0.0 mm
08:45 AM 92.1°F33.4°C 78.3°F25.7°C 64% 4.5 mph NNW7.2 kmh NNW 8.3 mph13.4 kmh 29.90 in1012.5 mb 0.00 in0.0 mm 0.00 in0.0 mm 0.00 in0.0 mm
08:40 AM 91.0°F32.8°C 77.7°F25.4°C 65% 3.1 mph NW5.0 kmh NW 6.9 mph11.1 kmh 29.90 in1012.5 mb 0.00 in0.0 mm 0.00 in0.0 mm 0.00 in0.0 mm
08:35 AM 90.5°F32.5°C 77.2°F25.1°C 65% 3.8 mph NW6.1 kmh NW 6.0 mph9.7 kmh 29.90 in1012.5 mb 0.00 in0.0 mm 0.00 in0.0 mm 0.00 in0.0 mm
08:30 AM 90.0°F32.2°C 77.2°F25.1°C 66% 3.8 mph NW6.1 kmh NW 5.4 mph8.7 kmh 29.90 in1012.5 mb 0.00 in0.0 mm 0.00 in0.0 mm 0.00 in0.0 mm
08:25 AM 89.1°F31.7°C 76.7°F24.8°C 67% 2.2 mph NW3.5 kmh NW 6.9 mph11.1 kmh 29.90 in1012.5 mb 0.00 in0.0 mm 0.00 in0.0 mm 0.00 in0.0 mm
08:20 AM 88.2°F31.2°C 76.8°F24.9°C 69% 4.5 mph NW7.2 kmh NW 6.9 mph11.1 kmh 29.90 in1012.5 mb 0.00 in0.0 mm 0.00 in0.0 mm 0.00 in0.0 mm
08:15 AM 86.9°F30.5°C 76.0°F24.4°C 70% 3.8 mph NW6.1 kmh NW 5.4 mph8.7 kmh 29.90 in1012.5 mb 0.00 in0.0 mm 0.00 in0.0 mm 0.00 in0.0 mm
08:10 AM 85.3°F29.6°C 74.9°F23.8°C 71% 2.2 mph NW3.5 kmh NW 5.4 mph8.7 kmh 29.90 in1012.5 mb 0.00 in0.0 mm 0.00 in0.0 mm 0.00 in0.0 mm
08:05 AM 83.7°F28.7°C 74.1°F23.4°C 73% 2.2 mph NW3.5 kmh NW 3.1 mph5.0 kmh 29.90 in1012.5 mb 0.00 in0.0 mm 0.00 in0.0 mm 0.00 in0.0 mm
08:00 AM 82.4°F28.0°C 72.9°F22.7°C 73% 1.6 mph NW2.6 kmh NW 3.1 mph5.0 kmh 29.90 in1012.5 mb 0.00 in0.0 mm 0.00 in0.0 mm 0.00 in0.0 mm
07:55 AM 81.7°F27.6°C 72.2°F22.3°C 73% 0.7 mph WNW1.1 kmh WNW 3.1 mph5.0 kmh 29.89 in1012.2 mb 0.00 in0.0 mm 0.00 in0.0 mm 0.00 in0.0 mm
07:50 AM 81.3°F27.4°C 72.3°F22.4°C 74% 0.7 mph WNW1.1 kmh WNW 3.1 mph5.0 kmh 29.89 in1012.2 mb 0.00 in0.0 mm 0.00 in0.0 mm 0.00 in0.0 mm
07:45 AM 80.8°F27.1°C 71.8°F22.1°C 74% 1.6 mph WNW2.6 kmh WNW 3.1 mph5.0 kmh 29.89 in1012.2 mb 0.00 in0.0 mm 0.00 in0.0 mm 0.00 in0.0 mm
07:40 AM 80.6°F27.0°C 71.6°F22.0°C 74% 0.7 mph W1.1 kmh W 3.8 mph6.1 kmh 29.89 in1012.2 mb 0.00 in0.0 mm 0.00 in0.0 mm 0.00 in0.0 mm
07:35 AM 80.4°F26.9°C 71.8°F22.1°C 75% 1.6 mph W2.6 kmh W 3.8 mph6.1 kmh 29.89 in1012.2 mb 0.00 in0.0 mm 0.00 in0.0 mm 0.00 in0.0 mm
07:30 AM 80.1°F26.7°C 71.5°F21.9°C 75% 1.6 mph W2.6 kmh W 3.1 mph5.0 kmh 29.89 in1012.2 mb 0.00 in0.0 mm 0.00 in0.0 mm 0.00 in0.0 mm
07:25 AM 79.5°F26.4°C 71.0°F21.7°C 75% 1.6 mph W2.6 kmh W 2.2 mph3.5 kmh 29.88 in1011.9 mb 0.00 in0.0 mm 0.00 in0.0 mm 0.00 in0.0 mm
07:20 AM 79.0°F26.1°C 70.4°F21.3°C 75% 0.7 mph W1.1 kmh W 1.6 mph2.6 kmh 29.88 in1011.9 mb 0.00 in0.0 mm 0.00 in0.0 mm 0.00 in0.0 mm
07:15 AM 78.6°F25.9°C 70.1°F21.2°C 75% 0.7 mph W1.1 kmh W 2.2 mph3.5 kmh 29.88 in1011.9 mb 0.00 in0.0 mm 0.00 in0.0 mm 0.00 in0.0 mm
07:10 AM 78.6°F25.9°C 70.1°F21.2°C 75% 0.7 mph W1.1 kmh W 2.2 mph3.5 kmh 29.88 in1011.9 mb 0.00 in0.0 mm 0.00 in0.0 mm 0.00 in0.0 mm
07:05 AM 78.3°F25.7°C 69.7°F20.9°C 75% 1.6 mph W2.6 kmh W 3.1 mph5.0 kmh 29.88 in1011.9 mb 0.00 in0.0 mm 0.00 in0.0 mm 0.00 in0.0 mm
07:00 AM 78.3°F25.7°C 69.7°F20.9°C 75% 1.6 mph W2.6 kmh W 3.8 mph6.1 kmh 29.88 in1011.9 mb 0.00 in0.0 mm 0.00 in0.0 mm 0.00 in0.0 mm
06:55 AM 78.1°F25.6°C 69.6°F20.9°C 75% 2.2 mph W3.5 kmh W 3.8 mph6.1 kmh 29.88 in1011.9 mb 0.00 in0.0 mm 0.00 in0.0 mm 0.00 in0.0 mm
06:50 AM 78.1°F25.6°C 69.2°F20.7°C 74% 1.6 mph W2.6 kmh W 2.2 mph3.5 kmh 29.88 in1011.9 mb 0.00 in0.0 mm 0.00 in0.0 mm 0.00 in0.0 mm
06:45 AM 78.1°F25.6°C 69.2°F20.7°C 74% 1.6 mph W2.6 kmh W 2.2 mph3.5 kmh 29.87 in1011.5 mb 0.00 in0.0 mm 0.00 in0.0 mm 0.00 in0.0 mm
06:40 AM 77.9°F25.5°C 69.0°F20.6°C 74% 1.6 mph W2.6 kmh W 3.8 mph6.1 kmh 29.87 in1011.5 mb 0.00 in0.0 mm 0.00 in0.0 mm 0.00 in0.0 mm
06:35 AM 78.1°F25.6°C 69.2°F20.7°C 74% 1.6 mph W2.6 kmh W 3.8 mph6.1 kmh 29.86 in1011.2 mb 0.00 in0.0 mm 0.00 in0.0 mm 0.00 in0.0 mm
06:30 AM 77.9°F25.5°C 69.0°F20.6°C 74% 2.2 mph W3.5 kmh W 3.1 mph5.0 kmh 29.86 in1011.2 mb 0.00 in0.0 mm 0.00 in0.0 mm 0.00 in0.0 mm
06:25 AM 77.7°F25.4°C 68.8°F20.4°C 74% 2.2 mph W3.5 kmh W 3.1 mph5.0 kmh 29.86 in1011.2 mb 0.00 in0.0 mm 0.00 in0.0 mm 0.00 in0.0 mm
06:20 AM 77.7°F25.4°C 68.8°F20.4°C 74% 0.7 mph WNW1.1 kmh WNW 2.2 mph3.5 kmh 29.86 in1011.2 mb 0.00 in0.0 mm 0.00 in0.0 mm 0.00 in0.0 mm
06:15 AM 77.7°F25.4°C 68.8°F20.4°C 74% Calm Calm -- 29.86 in1011.2 mb 0.00 in0.0 mm 0.00 in0.0 mm 0.00 in0.0 mm
06:10 AM 77.7°F25.4°C 68.8°F20.4°C 74% Calm Calm -- 29.85 in1010.8 mb 0.00 in0.0 mm 0.00 in0.0 mm 0.00 in0.0 mm
06:05 AM 77.9°F25.5°C 69.0°F20.6°C 74% Calm Calm -- 29.85 in1010.8 mb 0.00 in0.0 mm 0.00 in0.0 mm 0.00 in0.0 mm
06:00 AM 77.9°F25.5°C 69.0°F20.6°C 74% Calm Calm -- 29.85 in1010.8 mb 0.00 in0.0 mm 0.00 in0.0 mm 0.00 in0.0 mm
05:55 AM 77.9°F25.5°C 69.0°F20.6°C 74% Calm Calm -- 29.85 in1010.8 mb 0.00 in0.0 mm 0.00 in0.0 mm 0.00 in0.0 mm
05:50 AM 77.9°F25.5°C 69.0°F20.6°C 74% Calm Calm 0.7 mph1.1 kmh 29.85 in1010.8 mb 0.00 in0.0 mm 0.00 in0.0 mm 0.00 in0.0 mm
05:45 AM 77.9°F25.5°C 69.0°F20.6°C 74% Calm Calm 0.7 mph1.1 kmh 29.85 in1010.8 mb 0.00 in0.0 mm 0.00 in0.0 mm 0.00 in0.0 mm
05:40 AM 77.9°F25.5°C 69.0°F20.6°C 74% Calm Calm -- 29.85 in1010.8 mb 0.00 in0.0 mm 0.00 in0.0 mm 0.00 in0.0 mm
05:35 AM 77.9°F25.5°C 69.0°F20.6°C 74% Calm Calm -- 29.84 in1010.5 mb 0.00 in0.0 mm 0.00 in0.0 mm 0.00 in0.0 mm
05:30 AM 78.1°F25.6°C 69.2°F20.7°C 74% Calm Calm -- 29.84 in1010.5 mb 0.00 in0.0 mm 0.00 in0.0 mm 0.00 in0.0 mm
05:25 AM 78.1°F25.6°C 69.2°F20.7°C 74% Calm Calm 0.7 mph1.1 kmh 29.84 in1010.5 mb 0.00 in0.0 mm 0.00 in0.0 mm 0.00 in0.0 mm
05:20 AM 78.3°F25.7°C 69.3°F20.7°C 74% Calm Calm 0.7 mph1.1 kmh 29.84 in1010.5 mb 0.00 in0.0 mm 0.00 in0.0 mm 0.00 in0.0 mm
05:15 AM 78.3°F25.7°C 69.3°F20.7°C 74% Calm Calm 0.7 mph1.1 kmh 29.84 in1010.5 mb 0.00 in0.0 mm 0.00 in0.0 mm 0.00 in0.0 mm
05:10 AM 78.3°F25.7°C 69.3°F20.7°C 74% Calm Calm -- 29.84 in1010.5 mb 0.00 in0.0 mm 0.00 in0.0 mm 0.00 in0.0 mm
05:05 AM 78.3°F25.7°C 68.9°F20.5°C 73% Calm Calm 1.6 mph2.6 kmh 29.85 in1010.8 mb 0.00 in0.0 mm 0.00 in0.0 mm 0.00 in0.0 mm
05:00 AM 78.4°F25.8°C 69.5°F20.8°C 74% Calm Calm 1.6 mph2.6 kmh 29.84 in1010.5 mb 0.00 in0.0 mm 0.00 in0.0 mm 0.00 in0.0 mm
04:55 AM 78.4°F25.8°C 69.1°F20.6°C 73% Calm Calm 1.6 mph2.6 kmh 29.84 in1010.5 mb 0.00 in0.0 mm 0.00 in0.0 mm 0.00 in0.0 mm
04:50 AM 78.6°F25.9°C 69.7°F20.9°C 74% Calm Calm 1.6 mph2.6 kmh 29.84 in1010.5 mb 0.00 in0.0 mm 0.00 in0.0 mm 0.00 in0.0 mm
04:45 AM 78.6°F25.9°C 69.7°F20.9°C 74% 0.7 mph WNW1.1 kmh WNW 1.6 mph2.6 kmh 29.83 in1010.2 mb 0.00 in0.0 mm 0.00 in0.0 mm 0.00 in0.0 mm
04:40 AM 78.8°F26.0°C 69.5°F20.8°C 73% Calm Calm 2.2 mph3.5 kmh 29.84 in1010.5 mb 0.00 in0.0 mm 0.00 in0.0 mm 0.00 in0.0 mm
04:35 AM 78.8°F26.0°C 69.5°F20.8°C 73% 0.7 mph W1.1 kmh W 2.2 mph3.5 kmh 29.84 in1010.5 mb 0.00 in0.0 mm 0.00 in0.0 mm 0.00 in0.0 mm
04:30 AM 78.8°F26.0°C 69.5°F20.8°C 73% 0.7 mph NW1.1 kmh NW 2.2 mph3.5 kmh 29.84 in1010.5 mb 0.00 in0.0 mm 0.00 in0.0 mm 0.00 in0.0 mm
04:25 AM 78.8°F26.0°C 69.5°F20.8°C 73% Calm Calm 3.1 mph5.0 kmh 29.84 in1010.5 mb 0.00 in0.0 mm 0.00 in0.0 mm 0.00 in0.0 mm
04:20 AM 78.8°F26.0°C 69.5°F20.8°C 73% 1.6 mph NW2.6 kmh NW 3.1 mph5.0 kmh 29.83 in1010.2 mb 0.00 in0.0 mm 0.00 in0.0 mm 0.00 in0.0 mm
04:15 AM 78.8°F26.0°C 69.5°F20.8°C 73% 0.7 mph NW1.1 kmh NW 2.2 mph3.5 kmh 29.84 in1010.5 mb 0.00 in0.0 mm 0.00 in0.0 mm 0.00 in0.0 mm
04:10 AM 79.0°F26.1°C 69.6°F20.9°C 73% 1.6 mph WNW2.6 kmh WNW 2.2 mph3.5 kmh 29.84 in1010.5 mb 0.00 in0.0 mm 0.00 in0.0 mm 0.00 in0.0 mm
04:05 AM 79.0°F26.1°C 69.6°F20.9°C 73% 0.7 mph WSW1.1 kmh WSW 2.2 mph3.5 kmh 29.84 in1010.5 mb 0.00 in0.0 mm 0.00 in0.0 mm 0.00 in0.0 mm
04:00 AM 79.2°F26.2°C 69.8°F21.0°C 73% 1.6 mph SW2.6 kmh SW 3.1 mph5.0 kmh 29.84 in1010.5 mb 0.00 in0.0 mm 0.00 in0.0 mm 0.00 in0.0 mm
03:55 AM 79.2°F26.2°C 69.8°F21.0°C 73% 1.6 mph SW2.6 kmh SW 3.1 mph5.0 kmh 29.84 in1010.5 mb 0.00 in0.0 mm 0.00 in0.0 mm 0.00 in0.0 mm
03:50 AM 79.2°F26.2°C 69.8°F21.0°C 73% 1.6 mph SW2.6 kmh SW 3.1 mph5.0 kmh 29.84 in1010.5 mb 0.00 in0.0 mm 0.00 in0.0 mm 0.00 in0.0 mm
03:45 AM 79.2°F26.2°C 69.8°F21.0°C 73% 2.2 mph SW3.5 kmh SW 3.1 mph5.0 kmh 29.83 in1010.2 mb 0.00 in0.0 mm 0.00 in0.0 mm 0.00 in0.0 mm
03:40 AM 79.2°F26.2°C 69.8°F21.0°C 73% 1.6 mph SW2.6 kmh SW 2.2 mph3.5 kmh 29.84 in1010.5 mb 0.00 in0.0 mm 0.00 in0.0 mm 0.00 in0.0 mm
03:35 AM 79.3°F26.3°C 70.0°F21.1°C 73% 0.7 mph SW1.1 kmh SW 2.2 mph3.5 kmh 29.84 in1010.5 mb 0.00 in0.0 mm 0.00 in0.0 mm 0.00 in0.0 mm
03:30 AM 79.5°F26.4°C 70.2°F21.2°C 73% 0.7 mph SW1.1 kmh SW 2.2 mph3.5 kmh 29.84 in1010.5 mb 0.00 in0.0 mm 0.00 in0.0 mm 0.00 in0.0 mm
03:25 AM 79.5°F26.4°C 70.2°F21.2°C 73% 0.7 mph S1.1 kmh S 2.2 mph3.5 kmh 29.85 in1010.8 mb 0.00 in0.0 mm 0.00 in0.0 mm 0.00 in0.0 mm
03:20 AM 79.7°F26.5°C 70.3°F21.3°C 73% 1.6 mph S2.6 kmh S 2.2 mph3.5 kmh 29.85 in1010.8 mb 0.00 in0.0 mm 0.00 in0.0 mm 0.00 in0.0 mm
03:15 AM 79.7°F26.5°C 70.3°F21.3°C 73% 1.6 mph S2.6 kmh S 2.2 mph3.5 kmh 29.85 in1010.8 mb 0.00 in0.0 mm 0.00 in0.0 mm 0.00 in0.0 mm
03:10 AM 79.7°F26.5°C 69.9°F21.1°C 72% 1.6 mph SSW2.6 kmh SSW 2.2 mph3.5 kmh 29.85 in1010.8 mb 0.00 in0.0 mm 0.00 in0.0 mm 0.00 in0.0 mm
03:05 AM 79.9°F26.6°C 70.1°F21.2°C 72% Calm Calm 1.6 mph2.6 kmh 29.85 in1010.8 mb 0.00 in0.0 mm 0.00 in0.0 mm 0.00 in0.0 mm
03:00 AM 80.1°F26.7°C 70.3°F21.3°C 72% Calm Calm 2.2 mph3.5 kmh 29.85 in1010.8 mb 0.00 in0.0 mm 0.00 in0.0 mm 0.00 in0.0 mm
02:55 AM 80.1°F26.7°C 70.3°F21.3°C 72% 0.7 mph W1.1 kmh W 3.1 mph5.0 kmh 29.85 in1010.8 mb 0.00 in0.0 mm 0.00 in0.0 mm 0.00 in0.0 mm
02:50 AM 80.1°F26.7°C 70.3°F21.3°C 72% 1.6 mph W2.6 kmh W 3.8 mph6.1 kmh 29.86 in1011.2 mb 0.00 in0.0 mm 0.00 in0.0 mm 0.00 in0.0 mm
02:45 AM 80.2°F26.8°C 70.4°F21.3°C 72% 2.2 mph W3.5 kmh W 3.8 mph6.1 kmh 29.85 in1010.8 mb 0.00 in0.0 mm 0.00 in0.0 mm 0.00 in0.0 mm
02:40 AM 80.4°F26.9°C 70.6°F21.4°C 72% 1.6 mph W2.6 kmh W 3.8 mph6.1 kmh 29.86 in1011.2 mb 0.00 in0.0 mm 0.00 in0.0 mm 0.00 in0.0 mm
02:35 AM 80.4°F26.9°C 70.6°F21.4°C 72% 1.6 mph W2.6 kmh W 3.8 mph6.1 kmh 29.86 in1011.2 mb 0.00 in0.0 mm 0.00 in0.0 mm 0.00 in0.0 mm
02:30 AM 80.4°F26.9°C 70.6°F21.4°C 72% 2.2 mph WSW3.5 kmh WSW 3.8 mph6.1 kmh 29.86 in1011.2 mb 0.00 in0.0 mm 0.00 in0.0 mm 0.00 in0.0 mm
02:25 AM 80.4°F26.9°C 70.6°F21.4°C 72% 2.2 mph WSW3.5 kmh WSW 3.8 mph6.1 kmh 29.86 in1011.2 mb 0.00 in0.0 mm 0.00 in0.0 mm 0.00 in0.0 mm
02:20 AM 80.6°F27.0°C 70.8°F21.6°C 72% 2.2 mph WSW3.5 kmh WSW 4.5 mph7.2 kmh 29.86 in1011.2 mb 0.00 in0.0 mm 0.00 in0.0 mm 0.00 in0.0 mm
02:15 AM 80.6°F27.0°C 70.8°F21.6°C 72% 2.2 mph SW3.5 kmh SW 4.5 mph7.2 kmh 29.86 in1011.2 mb 0.00 in0.0 mm 0.00 in0.0 mm 0.00 in0.0 mm
02:10 AM 80.6°F27.0°C 70.8°F21.6°C 72% 2.2 mph SSW3.5 kmh SSW 3.8 mph6.1 kmh 29.86 in1011.2 mb 0.00 in0.0 mm 0.00 in0.0 mm 0.00 in0.0 mm
02:05 AM 80.6°F27.0°C 70.8°F21.6°C 72% 2.2 mph S3.5 kmh S 3.8 mph6.1 kmh 29.86 in1011.2 mb 0.00 in0.0 mm 0.00 in0.0 mm 0.00 in0.0 mm
02:00 AM 80.6°F27.0°C 70.8°F21.6°C 72% 3.1 mph S5.0 kmh S 3.8 mph6.1 kmh 29.86 in1011.2 mb 0.00 in0.0 mm 0.00 in0.0 mm 0.00 in0.0 mm
01:55 AM 80.8°F27.1°C 71.0°F21.7°C 72% 2.2 mph S3.5 kmh S 3.1 mph5.0 kmh 29.86 in1011.2 mb 0.00 in0.0 mm 0.00 in0.0 mm 0.00 in0.0 mm
01:50 AM 81.0°F27.2°C 71.1°F21.7°C 72% 2.2 mph S3.5 kmh S 3.8 mph6.1 kmh 29.87 in1011.5 mb 0.00 in0.0 mm 0.00 in0.0 mm 0.00 in0.0 mm
01:45 AM 81.0°F27.2°C 70.7°F21.5°C 71% 2.2 mph S3.5 kmh S 3.8 mph6.1 kmh 29.86 in1011.2 mb 0.00 in0.0 mm 0.00 in0.0 mm 0.00 in0.0 mm
01:40 AM 81.1°F27.3°C 70.9°F21.6°C 71% 2.2 mph S3.5 kmh S 3.8 mph6.1 kmh 29.87 in1011.5 mb 0.00 in0.0 mm 0.00 in0.0 mm 0.00 in0.0 mm
01:35 AM 81.3°F27.4°C 71.1°F21.7°C 71% 2.2 mph S3.5 kmh S 3.1 mph5.0 kmh 29.87 in1011.5 mb 0.00 in0.0 mm 0.00 in0.0 mm 0.00 in0.0 mm
01:30 AM 81.3°F27.4°C 71.1°F21.7°C 71% 2.2 mph S3.5 kmh S 3.1 mph5.0 kmh 29.87 in1011.5 mb 0.00 in0.0 mm 0.00 in0.0 mm 0.00 in0.0 mm
01:25 AM 81.5°F27.5°C 71.2°F21.8°C 71% 1.6 mph S2.6 kmh S 3.1 mph5.0 kmh 29.87 in1011.5 mb 0.00 in0.0 mm 0.00 in0.0 mm 0.00 in0.0 mm
01:20 AM 81.7°F27.6°C 71.0°F21.7°C 70% 2.2 mph S3.5 kmh S 3.1 mph5.0 kmh 29.87 in1011.5 mb 0.00 in0.0 mm 0.00 in0.0 mm 0.00 in0.0 mm
01:15 AM 81.9°F27.7°C 71.2°F21.8°C 70% 1.6 mph S2.6 kmh S 3.1 mph5.0 kmh 29.87 in1011.5 mb 0.00 in0.0 mm 0.00 in0.0 mm 0.00 in0.0 mm
01:10 AM 82.2°F27.9°C 71.5°F21.9°C 70% 2.2 mph SW3.5 kmh SW 3.1 mph5.0 kmh 29.88 in1011.9 mb 0.00 in0.0 mm 0.00 in0.0 mm 0.00 in0.0 mm
01:05 AM 82.2°F27.9°C 71.5°F21.9°C 70% 2.2 mph SW3.5 kmh SW 3.1 mph5.0 kmh 29.88 in1011.9 mb 0.00 in0.0 mm 0.00 in0.0 mm 0.00 in0.0 mm
01:00 AM 82.2°F27.9°C 71.5°F21.9°C 70% 1.6 mph SW2.6 kmh SW 2.2 mph3.5 kmh 29.88 in1011.9 mb 0.00 in0.0 mm 0.00 in0.0 mm 0.00 in0.0 mm
12:55 AM 82.2°F27.9°C 71.5°F21.9°C 70% 1.6 mph SSW2.6 kmh SSW 2.2 mph3.5 kmh 29.88 in1011.9 mb 0.00 in0.0 mm 0.00 in0.0 mm 0.00 in0.0 mm
12:50 AM 82.2°F27.9°C 71.5°F21.9°C 70% 1.6 mph S2.6 kmh S 2.2 mph3.5 kmh 29.88 in1011.9 mb 0.00 in0.0 mm 0.00 in0.0 mm 0.00 in0.0 mm
12:45 AM 82.0°F27.8°C 71.3°F21.8°C 70% 1.6 mph S2.6 kmh S 3.1 mph5.0 kmh 29.88 in1011.9 mb 0.00 in0.0 mm 0.00 in0.0 mm 0.00 in0.0 mm
12:40 AM 82.0°F27.8°C 71.3°F21.8°C 70% 1.6 mph S2.6 kmh S 3.1 mph5.0 kmh 29.88 in1011.9 mb 0.00 in0.0 mm 0.00 in0.0 mm 0.00 in0.0 mm
12:35 AM 82.0°F27.8°C 71.3°F21.8°C 70% 2.2 mph S3.5 kmh S 3.1 mph5.0 kmh 29.88 in1011.9 mb 0.00 in0.0 mm 0.00 in0.0 mm 0.00 in0.0 mm
12:30 AM 82.2°F27.9°C 71.5°F21.9°C 70% 2.2 mph S3.5 kmh S 3.1 mph5.0 kmh 29.88 in1011.9 mb 0.00 in0.0 mm 0.00 in0.0 mm 0.00 in0.0 mm
12:25 AM 82.4°F28.0°C 71.7°F22.1°C 70% 1.6 mph S2.6 kmh S 3.1 mph5.0 kmh 29.87 in1011.5 mb 0.00 in0.0 mm 0.00 in0.0 mm 0.00 in0.0 mm
12:20 AM 82.4°F28.0°C 71.7°F22.1°C 70% 1.6 mph S2.6 kmh S 2.2 mph3.5 kmh 29.88 in1011.9 mb 0.00 in0.0 mm 0.00 in0.0 mm 0.00 in0.0 mm
12:15 AM 82.4°F28.0°C 71.7°F22.1°C 70% 1.6 mph S2.6 kmh S 2.2 mph3.5 kmh 29.88 in1011.9 mb 0.00 in0.0 mm 0.00 in0.0 mm 0.00 in0.0 mm
12:10 AM 82.4°F28.0°C 71.7°F22.1°C 70% 0.7 mph S1.1 kmh S 1.6 mph2.6 kmh 29.88 in1011.9 mb 0.00 in0.0 mm 0.00 in0.0 mm 0.00 in0.0 mm
12:05 AM 82.4°F28.0°C 71.7°F22.1°C 70% 0.7 mph S1.1 kmh S 3.1 mph5.0 kmh 29.89 in1012.2 mb 0.00 in0.0 mm 0.00 in0.0 mm 0.00 in0.0 mm
12:00 AM 82.2°F27.9°C 71.5°F21.9°C 70% 0.7 mph S1.1 kmh S 3.1 mph5.0 kmh 29.89 in1012.2 mb 0.00 in0.0 mm 0.00 in0.0 mm 0.00 in0.0 mm